sensor_id;sensor_type;location;lat;lon;timestamp;P1;durP1;ratioP1;P2;durP2;ratioP2
40993;SDS011;26722;43.212;27.932;2023-09-12T00:00:47;10.15;;;5.90;;
40993;SDS011;26722;43.212;27.932;2023-09-12T00:03:13;8.30;;;5.10;;
40993;SDS011;26722;43.212;27.932;2023-09-12T00:05:38;13.88;;;5.72;;
40993;SDS011;26722;43.212;27.932;2023-09-12T00:08:04;8.10;;;5.25;;
40993;SDS011;26722;43.212;27.932;2023-09-12T00:10:30;13.40;;;6.18;;
40993;SDS011;26722;43.212;27.932;2023-09-12T00:12:55;12.75;;;5.47;;
40993;SDS011;26722;43.212;27.932;2023-09-12T00:15:21;15.02;;;6.22;;
40993;SDS011;26722;43.212;27.932;2023-09-12T00:17:46;15.02;;;5.72;;
40993;SDS011;26722;43.212;27.932;2023-09-12T00:20:13;9.45;;;5.53;;
40993;SDS011;26722;43.212;27.932;2023-09-12T00:22:39;9.63;;;5.82;;
40993;SDS011;26722;43.212;27.932;2023-09-12T00:25:04;13.10;;;5.80;;
40993;SDS011;26722;43.212;27.932;2023-09-12T00:27:30;12.38;;;5.43;;
40993;SDS011;26722;43.212;27.932;2023-09-12T00:29:55;11.55;;;6.10;;
40993;SDS011;26722;43.212;27.932;2023-09-12T00:32:21;14.82;;;6.18;;
40993;SDS011;26722;43.212;27.932;2023-09-12T00:34:46;11.63;;;5.85;;
40993;SDS011;26722;43.212;27.932;2023-09-12T00:37:12;16.00;;;6.30;;
40993;SDS011;26722;43.212;27.932;2023-09-12T00:39:37;9.13;;;5.95;;
40993;SDS011;26722;43.212;27.932;2023-09-12T00:42:03;11.43;;;5.90;;
40993;SDS011;26722;43.212;27.932;2023-09-12T00:44:28;11.52;;;5.85;;
40993;SDS011;26722;43.212;27.932;2023-09-12T00:46:57;12.82;;;5.43;;
40993;SDS011;26722;43.212;27.932;2023-09-12T00:49:22;13.52;;;6.10;;
40993;SDS011;26722;43.212;27.932;2023-09-12T00:51:49;11.80;;;6.90;;
40993;SDS011;26722;43.212;27.932;2023-09-12T00:54:15;8.27;;;5.63;;
40993;SDS011;26722;43.212;27.932;2023-09-12T00:56:41;14.25;;;5.82;;
40993;SDS011;26722;43.212;27.932;2023-09-12T00:59:07;10.65;;;6.07;;
40993;SDS011;26722;43.212;27.932;2023-09-12T01:01:34;16.98;;;5.85;;
40993;SDS011;26722;43.212;27.932;2023-09-12T01:04:00;12.20;;;5.93;;
40993;SDS011;26722;43.212;27.932;2023-09-12T01:06:27;11.43;;;5.60;;
40993;SDS011;26722;43.212;27.932;2023-09-12T01:08:54;12.48;;;5.35;;
40993;SDS011;26722;43.212;27.932;2023-09-12T01:11:20;14.65;;;5.85;;
40993;SDS011;26722;43.212;27.932;2023-09-12T01:13:47;15.15;;;5.78;;
40993;SDS011;26722;43.212;27.932;2023-09-12T01:16:12;10.65;;;5.82;;
40993;SDS011;26722;43.212;27.932;2023-09-12T01:18:38;9.57;;;5.95;;
40993;SDS011;26722;43.212;27.932;2023-09-12T01:28:57;14.63;;;5.95;;
40993;SDS011;26722;43.212;27.932;2023-09-12T01:31:23;14.48;;;6.38;;
40993;SDS011;26722;43.212;27.932;2023-09-12T01:33:54;15.57;;;6.97;;
40993;SDS011;26722;43.212;27.932;2023-09-12T01:36:20;12.85;;;6.25;;
40993;SDS011;26722;43.212;27.932;2023-09-12T01:38:45;16.48;;;8.15;;
40993;SDS011;26722;43.212;27.932;2023-09-12T01:41:11;21.15;;;9.65;;
40993;SDS011;26722;43.212;27.932;2023-09-12T01:43:37;23.40;;;11.85;;
40993;SDS011;26722;43.212;27.932;2023-09-12T01:46:04;30.88;;;14.05;;
40993;SDS011;26722;43.212;27.932;2023-09-12T01:48:32;27.98;;;14.95;;
40993;SDS011;26722;43.212;27.932;2023-09-12T01:51:03;34.15;;;15.32;;
40993;SDS011;26722;43.212;27.932;2023-09-12T01:53:30;20.80;;;12.20;;
40993;SDS011;26722;43.212;27.932;2023-09-12T01:55:58;18.42;;;12.20;;
40993;SDS011;26722;43.212;27.932;2023-09-12T01:58:27;17.92;;;10.50;;
40993;SDS011;26722;43.212;27.932;2023-09-12T02:00:54;18.45;;;9.80;;
40993;SDS011;26722;43.212;27.932;2023-09-12T02:03:19;14.13;;;8.57;;
40993;SDS011;26722;43.212;27.932;2023-09-12T02:05:45;15.50;;;8.30;;
40993;SDS011;26722;43.212;27.932;2023-09-12T02:08:10;26.10;;;8.68;;
40993;SDS011;26722;43.212;27.932;2023-09-12T02:10:36;16.70;;;7.82;;
40993;SDS011;26722;43.212;27.932;2023-09-12T02:13:01;14.57;;;7.55;;
40993;SDS011;26722;43.212;27.932;2023-09-12T02:15:26;15.10;;;8.00;;
40993;SDS011;26722;43.212;27.932;2023-09-12T02:17:52;13.07;;;7.25;;
40993;SDS011;26722;43.212;27.932;2023-09-12T02:20:17;11.05;;;6.63;;
40993;SDS011;26722;43.212;27.932;2023-09-12T02:22:44;16.15;;;6.57;;
40993;SDS011;26722;43.212;27.932;2023-09-12T02:25:10;13.70;;;5.78;;
40993;SDS011;26722;43.212;27.932;2023-09-12T02:27:35;13.82;;;6.10;;
40993;SDS011;26722;43.212;27.932;2023-09-12T02:30:01;13.27;;;6.25;;
40993;SDS011;26722;43.212;27.932;2023-09-12T02:32:27;11.18;;;6.28;;
40993;SDS011;26722;43.212;27.932;2023-09-12T02:34:53;13.90;;;6.47;;
40993;SDS011;26722;43.212;27.932;2023-09-12T02:37:21;17.38;;;6.78;;
40993;SDS011;26722;43.212;27.932;2023-09-12T02:39:47;13.27;;;6.30;;
40993;SDS011;26722;43.212;27.932;2023-09-12T02:42:12;10.15;;;5.90;;
40993;SDS011;26722;43.212;27.932;2023-09-12T02:44:38;11.25;;;6.88;;
40993;SDS011;26722;43.212;27.932;2023-09-12T02:47:03;18.08;;;7.90;;
40993;SDS011;26722;43.212;27.932;2023-09-12T02:49:29;18.08;;;8.70;;
40993;SDS011;26722;43.212;27.932;2023-09-12T02:51:54;16.60;;;8.60;;
40993;SDS011;26722;43.212;27.932;2023-09-12T02:54:20;18.35;;;8.90;;
40993;SDS011;26722;43.212;27.932;2023-09-12T02:56:45;21.80;;;10.00;;
40993;SDS011;26722;43.212;27.932;2023-09-12T02:59:11;18.30;;;10.82;;
40993;SDS011;26722;43.212;27.932;2023-09-12T03:01:36;22.23;;;11.50;;
40993;SDS011;26722;43.212;27.932;2023-09-12T03:04:02;24.65;;;11.30;;
40993;SDS011;26722;43.212;27.932;2023-09-12T03:06:28;25.15;;;12.32;;
40993;SDS011;26722;43.212;27.932;2023-09-12T03:08:54;36.70;;;13.32;;
40993;SDS011;26722;43.212;27.932;2023-09-12T03:11:19;35.17;;;14.95;;
40993;SDS011;26722;43.212;27.932;2023-09-12T03:13:45;26.17;;;14.48;;
40993;SDS011;26722;43.212;27.932;2023-09-12T03:16:11;31.70;;;16.33;;
40993;SDS011;26722;43.212;27.932;2023-09-12T03:18:37;31.45;;;16.63;;
40993;SDS011;26722;43.212;27.932;2023-09-12T03:21:02;27.27;;;16.40;;
40993;SDS011;26722;43.212;27.932;2023-09-12T03:23:28;29.42;;;16.52;;
40993;SDS011;26722;43.212;27.932;2023-09-12T03:25:53;26.30;;;14.98;;
40993;SDS011;26722;43.212;27.932;2023-09-12T03:28:19;34.90;;;16.83;;
40993;SDS011;26722;43.212;27.932;2023-09-12T03:30:44;28.30;;;15.45;;
40993;SDS011;26722;43.212;27.932;2023-09-12T03:33:10;33.17;;;14.55;;
40993;SDS011;26722;43.212;27.932;2023-09-12T03:35:35;30.02;;;15.35;;
40993;SDS011;26722;43.212;27.932;2023-09-12T03:38:01;34.33;;;17.25;;
40993;SDS011;26722;43.212;27.932;2023-09-12T03:40:29;39.63;;;21.00;;
40993;SDS011;26722;43.212;27.932;2023-09-12T03:42:55;48.92;;;24.30;;
40993;SDS011;26722;43.212;27.932;2023-09-12T03:45:21;49.22;;;23.98;;
40993;SDS011;26722;43.212;27.932;2023-09-12T03:47:46;43.67;;;23.42;;
40993;SDS011;26722;43.212;27.932;2023-09-12T03:50:12;43.78;;;24.02;;
40993;SDS011;26722;43.212;27.932;2023-09-12T03:52:39;53.63;;;24.33;;
40993;SDS011;26722;43.212;27.932;2023-09-12T03:55:04;43.17;;;22.88;;
40993;SDS011;26722;43.212;27.932;2023-09-12T03:57:30;46.30;;;22.30;;
40993;SDS011;26722;43.212;27.932;2023-09-12T03:59:56;43.40;;;22.85;;
40993;SDS011;26722;43.212;27.932;2023-09-12T04:02:22;36.15;;;23.13;;
40993;SDS011;26722;43.212;27.932;2023-09-12T04:04:47;39.30;;;19.50;;
40993;SDS011;26722;43.212;27.932;2023-09-12T04:07:12;47.08;;;23.88;;
40993;SDS011;26722;43.212;27.932;2023-09-12T04:09:38;38.65;;;21.08;;
40993;SDS011;26722;43.212;27.932;2023-09-12T04:12:04;40.30;;;19.80;;
40993;SDS011;26722;43.212;27.932;2023-09-12T04:14:31;41.00;;;20.33;;
40993;SDS011;26722;43.212;27.932;2023-09-12T04:16:57;47.72;;;20.05;;
40993;SDS011;26722;43.212;27.932;2023-09-12T04:19:22;43.63;;;19.80;;
40993;SDS011;26722;43.212;27.932;2023-09-12T04:21:48;35.90;;;19.63;;
40993;SDS011;26722;43.212;27.932;2023-09-12T04:24:13;34.33;;;18.95;;
40993;SDS011;26722;43.212;27.932;2023-09-12T04:26:40;41.25;;;20.65;;
40993;SDS011;26722;43.212;27.932;2023-09-12T04:29:06;49.97;;;23.55;;
40993;SDS011;26722;43.212;27.932;2023-09-12T04:31:31;44.88;;;24.15;;
40993;SDS011;26722;43.212;27.932;2023-09-12T04:33:57;51.80;;;24.95;;
40993;SDS011;26722;43.212;27.932;2023-09-12T04:36:22;53.10;;;25.02;;
40993;SDS011;26722;43.212;27.932;2023-09-12T04:38:48;51.42;;;25.35;;
40993;SDS011;26722;43.212;27.932;2023-09-12T04:41:13;50.47;;;24.52;;
40993;SDS011;26722;43.212;27.932;2023-09-12T04:43:44;42.83;;;23.70;;
40993;SDS011;26722;43.212;27.932;2023-09-12T04:46:10;42.80;;;23.05;;
40993;SDS011;26722;43.212;27.932;2023-09-12T04:48:36;49.97;;;24.65;;
40993;SDS011;26722;43.212;27.932;2023-09-12T04:51:02;55.67;;;23.60;;
40993;SDS011;26722;43.212;27.932;2023-09-12T04:53:29;44.47;;;22.75;;
40993;SDS011;26722;43.212;27.932;2023-09-12T04:56:01;51.35;;;22.67;;
40993;SDS011;26722;43.212;27.932;2023-09-12T04:58:27;46.97;;;22.77;;
40993;SDS011;26722;43.212;27.932;2023-09-12T05:00:54;41.03;;;22.48;;
40993;SDS011;26722;43.212;27.932;2023-09-12T05:03:20;45.42;;;22.73;;
40993;SDS011;26722;43.212;27.932;2023-09-12T05:05:46;44.53;;;23.75;;
40993;SDS011;26722;43.212;27.932;2023-09-12T05:08:12;45.63;;;24.38;;
40993;SDS011;26722;43.212;27.932;2023-09-12T05:10:38;41.13;;;22.40;;
40993;SDS011;26722;43.212;27.932;2023-09-12T05:13:04;43.10;;;23.73;;
40993;SDS011;26722;43.212;27.932;2023-09-12T05:15:29;42.38;;;22.85;;
40993;SDS011;26722;43.212;27.932;2023-09-12T05:17:55;44.97;;;23.67;;
40993;SDS011;26722;43.212;27.932;2023-09-12T05:20:20;47.15;;;23.15;;
40993;SDS011;26722;43.212;27.932;2023-09-12T05:22:46;48.97;;;22.40;;
40993;SDS011;26722;43.212;27.932;2023-09-12T05:25:11;36.10;;;21.27;;
40993;SDS011;26722;43.212;27.932;2023-09-12T05:27:36;45.80;;;22.38;;
40993;SDS011;26722;43.212;27.932;2023-09-12T05:30:02;48.58;;;24.30;;
40993;SDS011;26722;43.212;27.932;2023-09-12T05:32:28;52.42;;;23.80;;
40993;SDS011;26722;43.212;27.932;2023-09-12T05:34:53;45.00;;;23.45;;
40993;SDS011;26722;43.212;27.932;2023-09-12T05:37:18;43.92;;;20.63;;
40993;SDS011;26722;43.212;27.932;2023-09-12T05:39:45;47.45;;;20.75;;
40993;SDS011;26722;43.212;27.932;2023-09-12T05:42:11;45.88;;;20.75;;
40993;SDS011;26722;43.212;27.932;2023-09-12T05:44:37;46.63;;;20.65;;
40993;SDS011;26722;43.212;27.932;2023-09-12T05:47:02;42.60;;;21.88;;
40993;SDS011;26722;43.212;27.932;2023-09-12T05:49:28;43.60;;;21.23;;
40993;SDS011;26722;43.212;27.932;2023-09-12T05:51:54;47.53;;;22.15;;
40993;SDS011;26722;43.212;27.932;2023-09-12T05:54:19;42.95;;;21.90;;
40993;SDS011;26722;43.212;27.932;2023-09-12T05:56:45;37.90;;;21.10;;
40993;SDS011;26722;43.212;27.932;2023-09-12T05:59:12;40.58;;;19.58;;
40993;SDS011;26722;43.212;27.932;2023-09-12T06:01:38;47.83;;;19.90;;
40993;SDS011;26722;43.212;27.932;2023-09-12T06:04:04;31.30;;;17.75;;
40993;SDS011;26722;43.212;27.932;2023-09-12T06:06:30;33.60;;;20.85;;
40993;SDS011;26722;43.212;27.932;2023-09-12T06:08:55;40.67;;;19.42;;
40993;SDS011;26722;43.212;27.932;2023-09-12T06:11:21;43.35;;;21.67;;
40993;SDS011;26722;43.212;27.932;2023-09-12T06:13:47;45.85;;;20.67;;
40993;SDS011;26722;43.212;27.932;2023-09-12T06:16:12;46.47;;;19.40;;
40993;SDS011;26722;43.212;27.932;2023-09-12T06:18:37;48.67;;;20.13;;
40993;SDS011;26722;43.212;27.932;2023-09-12T06:21:03;41.50;;;19.63;;
40993;SDS011;26722;43.212;27.932;2023-09-12T06:23:29;44.13;;;18.52;;
40993;SDS011;26722;43.212;27.932;2023-09-12T06:25:55;44.92;;;18.52;;
40993;SDS011;26722;43.212;27.932;2023-09-12T06:28:28;42.30;;;14.98;;
40993;SDS011;26722;43.212;27.932;2023-09-12T06:30:55;22.48;;;9.10;;
40993;SDS011;26722;43.212;27.932;2023-09-12T06:33:22;39.45;;;14.63;;
40993;SDS011;26722;43.212;27.932;2023-09-12T06:35:48;24.20;;;10.27;;
40993;SDS011;26722;43.212;27.932;2023-09-12T06:38:15;31.40;;;11.80;;
40993;SDS011;26722;43.212;27.932;2023-09-12T06:40:42;20.42;;;11.10;;
40993;SDS011;26722;43.212;27.932;2023-09-12T06:43:08;23.63;;;10.95;;
40993;SDS011;26722;43.212;27.932;2023-09-12T06:45:33;22.15;;;11.23;;
40993;SDS011;26722;43.212;27.932;2023-09-12T06:48:01;29.33;;;13.65;;
40993;SDS011;26722;43.212;27.932;2023-09-12T06:50:27;21.77;;;10.68;;
40993;SDS011;26722;43.212;27.932;2023-09-12T06:52:52;18.95;;;9.38;;
40993;SDS011;26722;43.212;27.932;2023-09-12T06:55:18;19.45;;;9.88;;
40993;SDS011;26722;43.212;27.932;2023-09-12T06:57:43;20.25;;;8.27;;
40993;SDS011;26722;43.212;27.932;2023-09-12T07:00:10;6.65;;;4.30;;
40993;SDS011;26722;43.212;27.932;2023-09-12T07:02:36;6.75;;;3.15;;
40993;SDS011;26722;43.212;27.932;2023-09-12T07:05:02;9.48;;;3.78;;
40993;SDS011;26722;43.212;27.932;2023-09-12T07:07:29;7.70;;;3.35;;
40993;SDS011;26722;43.212;27.932;2023-09-12T07:09:54;4.95;;;3.33;;
40993;SDS011;26722;43.212;27.932;2023-09-12T07:12:20;7.28;;;3.08;;
40993;SDS011;26722;43.212;27.932;2023-09-12T07:14:45;10.23;;;3.30;;
40993;SDS011;26722;43.212;27.932;2023-09-12T07:17:10;8.10;;;3.58;;
40993;SDS011;26722;43.212;27.932;2023-09-12T07:19:36;7.50;;;4.05;;
40993;SDS011;26722;43.212;27.932;2023-09-12T07:22:01;5.70;;;3.25;;
40993;SDS011;26722;43.212;27.932;2023-09-12T07:24:27;7.22;;;3.28;;
40993;SDS011;26722;43.212;27.932;2023-09-12T07:26:52;4.72;;;3.05;;
40993;SDS011;26722;43.212;27.932;2023-09-12T07:29:18;11.02;;;4.00;;
40993;SDS011;26722;43.212;27.932;2023-09-12T07:31:44;7.90;;;3.58;;
40993;SDS011;26722;43.212;27.932;2023-09-12T07:34:09;9.23;;;3.75;;
40993;SDS011;26722;43.212;27.932;2023-09-12T07:36:37;7.45;;;3.13;;
40993;SDS011;26722;43.212;27.932;2023-09-12T07:39:03;5.82;;;3.92;;
40993;SDS011;26722;43.212;27.932;2023-09-12T07:41:29;6.97;;;3.95;;
40993;SDS011;26722;43.212;27.932;2023-09-12T07:43:55;7.80;;;3.45;;
40993;SDS011;26722;43.212;27.932;2023-09-12T07:46:21;6.13;;;3.20;;
40993;SDS011;26722;43.212;27.932;2023-09-12T07:48:46;7.57;;;3.40;;
40993;SDS011;26722;43.212;27.932;2023-09-12T07:51:12;6.10;;;3.22;;
40993;SDS011;26722;43.212;27.932;2023-09-12T07:53:39;7.70;;;3.47;;
40993;SDS011;26722;43.212;27.932;2023-09-12T07:56:05;7.80;;;3.17;;
40993;SDS011;26722;43.212;27.932;2023-09-12T07:58:31;8.95;;;3.63;;
40993;SDS011;26722;43.212;27.932;2023-09-12T08:00:57;5.70;;;3.80;;
40993;SDS011;26722;43.212;27.932;2023-09-12T08:03:23;8.90;;;3.63;;
40993;SDS011;26722;43.212;27.932;2023-09-12T08:05:55;5.10;;;3.13;;
40993;SDS011;26722;43.212;27.932;2023-09-12T08:08:22;5.60;;;3.25;;
40993;SDS011;26722;43.212;27.932;2023-09-12T08:10:48;8.57;;;3.75;;
40993;SDS011;26722;43.212;27.932;2023-09-12T08:13:13;6.18;;;3.17;;
40993;SDS011;26722;43.212;27.932;2023-09-12T08:15:38;4.90;;;2.90;;
40993;SDS011;26722;43.212;27.932;2023-09-12T08:18:04;5.75;;;3.33;;
40993;SDS011;26722;43.212;27.932;2023-09-12T08:20:30;4.88;;;3.33;;
40993;SDS011;26722;43.212;27.932;2023-09-12T08:22:55;11.10;;;4.00;;
40993;SDS011;26722;43.212;27.932;2023-09-12T08:25:20;7.32;;;3.55;;
40993;SDS011;26722;43.212;27.932;2023-09-12T08:27:46;7.68;;;4.07;;
40993;SDS011;26722;43.212;27.932;2023-09-12T08:30:12;10.38;;;3.55;;
40993;SDS011;26722;43.212;27.932;2023-09-12T08:32:38;5.28;;;4.20;;
40993;SDS011;26722;43.212;27.932;2023-09-12T08:35:08;8.80;;;4.63;;
40993;SDS011;26722;43.212;27.932;2023-09-12T08:37:34;6.82;;;3.45;;
40993;SDS011;26722;43.212;27.932;2023-09-12T08:39:59;10.75;;;4.38;;
40993;SDS011;26722;43.212;27.932;2023-09-12T08:42:26;9.20;;;5.18;;
40993;SDS011;26722;43.212;27.932;2023-09-12T08:44:55;8.02;;;3.80;;
40993;SDS011;26722;43.212;27.932;2023-09-12T08:47:22;8.82;;;3.92;;
40993;SDS011;26722;43.212;27.932;2023-09-12T08:49:48;6.82;;;3.45;;
40993;SDS011;26722;43.212;27.932;2023-09-12T08:52:14;5.53;;;3.13;;
40993;SDS011;26722;43.212;27.932;2023-09-12T08:54:39;9.35;;;3.03;;
40993;SDS011;26722;43.212;27.932;2023-09-12T08:57:05;7.55;;;3.80;;
40993;SDS011;26722;43.212;27.932;2023-09-12T08:59:32;9.05;;;3.38;;
40993;SDS011;26722;43.212;27.932;2023-09-12T09:01:59;6.60;;;3.15;;
40993;SDS011;26722;43.212;27.932;2023-09-12T09:04:28;5.57;;;2.90;;
40993;SDS011;26722;43.212;27.932;2023-09-12T09:06:56;8.70;;;3.17;;
40993;SDS011;26722;43.212;27.932;2023-09-12T09:09:23;7.20;;;3.10;;
40993;SDS011;26722;43.212;27.932;2023-09-12T09:11:55;6.18;;;3.10;;
40993;SDS011;26722;43.212;27.932;2023-09-12T09:14:20;6.30;;;3.55;;
40993;SDS011;26722;43.212;27.932;2023-09-12T09:16:46;4.95;;;3.28;;
40993;SDS011;26722;43.212;27.932;2023-09-12T09:19:11;8.80;;;3.33;;
40993;SDS011;26722;43.212;27.932;2023-09-12T09:21:38;6.25;;;3.05;;
40993;SDS011;26722;43.212;27.932;2023-09-12T09:24:12;8.70;;;2.95;;
40993;SDS011;26722;43.212;27.932;2023-09-12T09:26:48;6.35;;;3.08;;
40993;SDS011;26722;43.212;27.932;2023-09-12T09:29:16;6.63;;;3.50;;
40993;SDS011;26722;43.212;27.932;2023-09-12T09:31:47;8.57;;;2.97;;
40993;SDS011;26722;43.212;27.932;2023-09-12T09:34:15;5.22;;;2.97;;
40993;SDS011;26722;43.212;27.932;2023-09-12T09:36:42;6.72;;;4.85;;
40993;SDS011;26722;43.212;27.932;2023-09-12T09:39:18;5.82;;;2.67;;
40993;SDS011;26722;43.212;27.932;2023-09-12T09:41:54;5.68;;;3.00;;
40993;SDS011;26722;43.212;27.932;2023-09-12T09:44:22;5.57;;;2.70;;
40993;SDS011;26722;43.212;27.932;2023-09-12T09:46:52;5.07;;;2.45;;
40993;SDS011;26722;43.212;27.932;2023-09-12T09:49:20;5.88;;;2.72;;
40993;SDS011;26722;43.212;27.932;2023-09-12T09:51:46;3.30;;;2.35;;
40993;SDS011;26722;43.212;27.932;2023-09-12T09:54:12;8.57;;;2.70;;
40993;SDS011;26722;43.212;27.932;2023-09-12T09:56:47;4.80;;;2.10;;
40993;SDS011;26722;43.212;27.932;2023-09-12T09:59:18;7.13;;;2.65;;
40993;SDS011;26722;43.212;27.932;2023-09-12T10:01:45;8.30;;;3.70;;
40993;SDS011;26722;43.212;27.932;2023-09-12T10:04:11;5.82;;;2.50;;
40993;SDS011;26722;43.212;27.932;2023-09-12T10:06:37;2.55;;;2.00;;
40993;SDS011;26722;43.212;27.932;2023-09-12T10:09:10;6.47;;;2.30;;
40993;SDS011;26722;43.212;27.932;2023-09-12T10:11:38;6.35;;;2.20;;
40993;SDS011;26722;43.212;27.932;2023-09-12T10:14:05;8.50;;;2.72;;
40993;SDS011;26722;43.212;27.932;2023-09-12T10:16:33;5.88;;;2.72;;
40993;SDS011;26722;43.212;27.932;2023-09-12T10:21:35;7.00;;;2.15;;
40993;SDS011;26722;43.212;27.932;2023-09-12T10:24:02;6.28;;;2.22;;
40993;SDS011;26722;43.212;27.932;2023-09-12T10:26:28;4.03;;;2.35;;
40993;SDS011;26722;43.212;27.932;2023-09-12T10:28:56;7.10;;;2.42;;
40993;SDS011;26722;43.212;27.932;2023-09-12T10:31:22;3.58;;;2.05;;
40993;SDS011;26722;43.212;27.932;2023-09-12T10:33:50;3.38;;;2.30;;
40993;SDS011;26722;43.212;27.932;2023-09-12T10:36:17;6.85;;;2.30;;
40993;SDS011;26722;43.212;27.932;2023-09-12T10:38:44;5.20;;;2.33;;
40993;SDS011;26722;43.212;27.932;2023-09-12T10:41:12;4.40;;;2.20;;
40993;SDS011;26722;43.212;27.932;2023-09-12T10:43:41;4.78;;;2.25;;
40993;SDS011;26722;43.212;27.932;2023-09-12T10:46:11;3.15;;;1.90;;
40993;SDS011;26722;43.212;27.932;2023-09-12T10:48:37;4.90;;;2.10;;
40993;SDS011;26722;43.212;27.932;2023-09-12T10:51:05;4.03;;;1.98;;
40993;SDS011;26722;43.212;27.932;2023-09-12T10:53:33;5.95;;;2.28;;
40993;SDS011;26722;43.212;27.932;2023-09-12T10:56:00;3.00;;;2.22;;
40993;SDS011;26722;43.212;27.932;2023-09-12T10:58:26;3.20;;;2.15;;
40993;SDS011;26722;43.212;27.932;2023-09-12T11:03:52;6.07;;;2.38;;
40993;SDS011;26722;43.212;27.932;2023-09-12T11:06:21;5.10;;;2.05;;
40993;SDS011;26722;43.212;27.932;2023-09-12T11:11:43;4.72;;;2.17;;
40993;SDS011;26722;43.212;27.932;2023-09-12T11:14:11;7.50;;;1.92;;
40993;SDS011;26722;43.212;27.932;2023-09-12T11:16:37;4.43;;;1.90;;
40993;SDS011;26722;43.212;27.932;2023-09-12T11:19:11;5.07;;;2.30;;
40993;SDS011;26722;43.212;27.932;2023-09-12T11:21:42;3.55;;;2.10;;
40993;SDS011;26722;43.212;27.932;2023-09-12T11:24:08;11.18;;;2.55;;
40993;SDS011;26722;43.212;27.932;2023-09-12T11:26:34;5.07;;;2.17;;
40993;SDS011;26722;43.212;27.932;2023-09-12T11:29:15;3.08;;;2.05;;
40993;SDS011;26722;43.212;27.932;2023-09-12T11:31:41;6.88;;;2.10;;
40993;SDS011;26722;43.212;27.932;2023-09-12T11:34:17;9.50;;;2.20;;
40993;SDS011;26722;43.212;27.932;2023-09-12T11:36:43;4.90;;;1.92;;
40993;SDS011;26722;43.212;27.932;2023-09-12T11:39:24;3.42;;;2.20;;
40993;SDS011;26722;43.212;27.932;2023-09-12T11:41:50;4.07;;;1.80;;
40993;SDS011;26722;43.212;27.932;2023-09-12T11:44:17;6.50;;;2.22;;
40993;SDS011;26722;43.212;27.932;2023-09-12T11:46:46;6.65;;;3.03;;
40993;SDS011;26722;43.212;27.932;2023-09-12T11:49:14;4.65;;;2.47;;
40993;SDS011;26722;43.212;27.932;2023-09-12T11:51:50;2.88;;;1.90;;
40993;SDS011;26722;43.212;27.932;2023-09-12T11:54:20;4.82;;;2.05;;
40993;SDS011;26722;43.212;27.932;2023-09-12T11:56:51;6.00;;;2.20;;
40993;SDS011;26722;43.212;27.932;2023-09-12T11:59:25;3.15;;;2.17;;
40993;SDS011;26722;43.212;27.932;2023-09-12T12:01:56;3.10;;;2.25;;
40993;SDS011;26722;43.212;27.932;2023-09-12T12:04:23;3.05;;;1.85;;
40993;SDS011;26722;43.212;27.932;2023-09-12T12:06:50;4.90;;;2.40;;
40993;SDS011;26722;43.212;27.932;2023-09-12T12:09:17;5.60;;;1.88;;
40993;SDS011;26722;43.212;27.932;2023-09-12T12:11:44;3.88;;;2.20;;
40993;SDS011;26722;43.212;27.932;2023-09-12T12:16:37;4.45;;;1.90;;
40993;SDS011;26722;43.212;27.932;2023-09-12T12:19:02;4.60;;;2.10;;
40993;SDS011;26722;43.212;27.932;2023-09-12T12:21:27;4.30;;;1.95;;
40993;SDS011;26722;43.212;27.932;2023-09-12T12:23:57;2.38;;;1.88;;
40993;SDS011;26722;43.212;27.932;2023-09-12T12:26:24;2.35;;;2.05;;
40993;SDS011;26722;43.212;27.932;2023-09-12T12:28:50;3.33;;;1.80;;
40993;SDS011;26722;43.212;27.932;2023-09-12T12:31:16;7.25;;;2.25;;
40993;SDS011;26722;43.212;27.932;2023-09-12T12:33:47;3.67;;;1.85;;
40993;SDS011;26722;43.212;27.932;2023-09-12T12:36:13;5.50;;;2.20;;
40993;SDS011;26722;43.212;27.932;2023-09-12T12:38:39;5.75;;;1.98;;
40993;SDS011;26722;43.212;27.932;2023-09-12T12:41:04;4.13;;;2.30;;
40993;SDS011;26722;43.212;27.932;2023-09-12T12:43:30;3.35;;;2.10;;
40993;SDS011;26722;43.212;27.932;2023-09-12T12:45:57;3.25;;;1.90;;
40993;SDS011;26722;43.212;27.932;2023-09-12T12:48:30;2.70;;;1.85;;
40993;SDS011;26722;43.212;27.932;2023-09-12T12:53:51;3.50;;;1.70;;
40993;SDS011;26722;43.212;27.932;2023-09-12T12:56:26;4.78;;;2.00;;
40993;SDS011;26722;43.212;27.932;2023-09-12T12:58:56;4.55;;;2.10;;
40993;SDS011;26722;43.212;27.932;2023-09-12T13:01:24;4.95;;;1.80;;
40993;SDS011;26722;43.212;27.932;2023-09-12T13:03:50;7.65;;;2.22;;
40993;SDS011;26722;43.212;27.932;2023-09-12T13:06:16;5.22;;;2.25;;
40993;SDS011;26722;43.212;27.932;2023-09-12T13:08:43;1.90;;;1.60;;
40993;SDS011;26722;43.212;27.932;2023-09-12T13:11:10;9.07;;;2.38;;
40993;SDS011;26722;43.212;27.932;2023-09-12T13:13:37;2.42;;;1.90;;
40993;SDS011;26722;43.212;27.932;2023-09-12T13:16:03;4.35;;;2.05;;
40993;SDS011;26722;43.212;27.932;2023-09-12T13:18:30;3.90;;;2.08;;
40993;SDS011;26722;43.212;27.932;2023-09-12T13:20:57;3.30;;;1.98;;
40993;SDS011;26722;43.212;27.932;2023-09-12T13:23:22;3.47;;;2.00;;
40993;SDS011;26722;43.212;27.932;2023-09-12T13:25:49;5.35;;;2.10;;
40993;SDS011;26722;43.212;27.932;2023-09-12T13:28:15;3.33;;;2.08;;
40993;SDS011;26722;43.212;27.932;2023-09-12T13:30:40;3.40;;;2.22;;
40993;SDS011;26722;43.212;27.932;2023-09-12T13:33:06;3.03;;;1.90;;
40993;SDS011;26722;43.212;27.932;2023-09-12T13:35:31;3.50;;;2.08;;
40993;SDS011;26722;43.212;27.932;2023-09-12T13:37:57;6.15;;;2.30;;
40993;SDS011;26722;43.212;27.932;2023-09-12T13:40:22;4.65;;;2.08;;
40993;SDS011;26722;43.212;27.932;2023-09-12T13:42:48;6.28;;;2.10;;
40993;SDS011;26722;43.212;27.932;2023-09-12T13:45:13;5.50;;;2.20;;
40993;SDS011;26722;43.212;27.932;2023-09-12T13:47:39;3.05;;;2.00;;
40993;SDS011;26722;43.212;27.932;2023-09-12T13:50:04;5.10;;;2.15;;
40993;SDS011;26722;43.212;27.932;2023-09-12T13:52:30;7.47;;;2.20;;
40993;SDS011;26722;43.212;27.932;2023-09-12T13:54:56;3.10;;;2.00;;
40993;SDS011;26722;43.212;27.932;2023-09-12T13:57:21;4.85;;;1.88;;
40993;SDS011;26722;43.212;27.932;2023-09-12T13:59:46;5.38;;;1.90;;
40993;SDS011;26722;43.212;27.932;2023-09-12T14:02:12;5.03;;;2.10;;
40993;SDS011;26722;43.212;27.932;2023-09-12T14:04:38;2.35;;;1.83;;
40993;SDS011;26722;43.212;27.932;2023-09-12T14:07:05;3.72;;;2.30;;
40993;SDS011;26722;43.212;27.932;2023-09-12T14:09:30;3.72;;;2.10;;
40993;SDS011;26722;43.212;27.932;2023-09-12T14:11:55;3.22;;;2.13;;
40993;SDS011;26722;43.212;27.932;2023-09-12T14:14:21;7.95;;;2.28;;
40993;SDS011;26722;43.212;27.932;2023-09-12T14:16:47;4.28;;;1.80;;
40993;SDS011;26722;43.212;27.932;2023-09-12T14:19:12;6.93;;;2.05;;
40993;SDS011;26722;43.212;27.932;2023-09-12T14:21:37;4.35;;;2.20;;
40993;SDS011;26722;43.212;27.932;2023-09-12T14:24:03;3.47;;;1.90;;
40993;SDS011;26722;43.212;27.932;2023-09-12T14:26:29;4.30;;;2.10;;
40993;SDS011;26722;43.212;27.932;2023-09-12T14:28:54;9.30;;;2.00;;
40993;SDS011;26722;43.212;27.932;2023-09-12T14:31:21;6.70;;;2.20;;
40993;SDS011;26722;43.212;27.932;2023-09-12T14:33:48;5.82;;;2.20;;
40993;SDS011;26722;43.212;27.932;2023-09-12T14:36:14;3.40;;;2.45;;
40993;SDS011;26722;43.212;27.932;2023-09-12T14:38:39;7.43;;;2.30;;
40993;SDS011;26722;43.212;27.932;2023-09-12T14:41:04;5.30;;;2.13;;